Ashley, North Dakota
Current Conditions -  °F | °C
As of 10:15 AM on Sunday 25 Jan 2015 (Local Time) from K7L2 Reporting Station
Unknown Precip Unknown Precip  
Wind Chill: 32°   Ceiling: 600
Heat Index: 32°   Visibility: 1.7mi
Dew Point: 32°   Wind: 0mph
Humidity: 100%   Direction: NA
Pressure: 30.01"   Gusts: NA
Location:  46.03°N, 99.37°W
Report Text: K7L2 251615Z AUTO 00000KT 1 3/4SM UP SCT002 OVC006 00/00 A3001 RMK AO2
Loading
Personal Weather Stations






























Interactive Weather Map New forecast layout! Learn more

10-Day Weather Forecast

Advertisements
Track Severe Weather on mobile